createdAt,value
2018-06-22T00:00:04.264Z,2.20
2018-06-22T00:04:08.106Z,2.40
2018-06-22T00:08:11.823Z,2.70
2018-06-22T00:12:15.163Z,1.87
2018-06-22T00:16:18.522Z,2.43
2018-06-22T00:20:21.920Z,2.60
2018-06-22T00:24:25.283Z,2.30
2018-06-22T00:28:28.615Z,2.10
2018-06-22T00:32:31.943Z,2.03
2018-06-22T00:36:35.323Z,2.50
2018-06-22T00:40:38.659Z,2.20
2018-06-22T00:44:42.016Z,2.70
2018-06-22T00:48:46.097Z,1.93
2018-06-22T00:52:49.494Z,1.77
2018-06-22T00:56:52.860Z,1.90
2018-06-22T01:00:56.675Z,2.27
2018-06-22T01:05:00.022Z,1.93
2018-06-22T01:09:03.709Z,2.30
2018-06-22T01:13:07.192Z,2.13
2018-06-22T01:17:13.476Z,1.90
2018-06-22T01:21:16.830Z,1.63
2018-06-22T01:25:20.213Z,2.27
2018-06-22T01:29:28.783Z,2.50
2018-06-22T01:33:32.134Z,2.37
2018-06-22T01:37:35.779Z,2.23
2018-06-22T01:41:39.955Z,2.30
2018-06-22T01:45:43.295Z,2.20
2018-06-22T01:49:46.694Z,2.50
2018-06-22T01:53:50.046Z,2.73
2018-06-22T01:57:53.409Z,2.33
2018-06-22T02:01:56.765Z,2.40
2018-06-22T02:06:00.140Z,2.63
2018-06-22T02:10:03.516Z,2.80
2018-06-22T02:14:07.635Z,3.03
2018-06-22T02:18:11.009Z,3.20
2018-06-22T02:22:14.365Z,2.40
2018-06-22T02:26:17.729Z,3.13
2018-06-22T02:30:21.898Z,2.87
2018-06-22T02:34:25.349Z,2.60
2018-06-22T02:38:28.712Z,2.60
2018-06-22T02:42:32.087Z,2.70
2018-06-22T02:46:35.540Z,2.90
2018-06-22T02:50:39.303Z,2.53
2018-06-22T02:54:42.678Z,2.70
2018-06-22T02:58:46.040Z,2.83
2018-06-22T03:02:49.491Z,2.83
2018-06-22T03:06:52.835Z,2.50
2018-06-22T03:10:56.173Z,2.67
2018-06-22T03:14:59.563Z,2.77
2018-06-22T03:19:02.947Z,3.00
2018-06-22T03:23:06.305Z,3.20
2018-06-22T03:27:09.632Z,3.67
2018-06-22T03:31:12.996Z,2.43
2018-06-22T03:35:16.399Z,2.83
2018-06-22T03:39:19.841Z,2.40
2018-06-22T03:43:23.256Z,2.83
2018-06-22T03:47:26.605Z,2.63
2018-06-22T03:51:30.059Z,3.00
2018-06-22T03:55:33.393Z,3.27
2018-06-22T03:59:36.478Z,2.47
2018-06-22T04:03:39.857Z,3.10
2018-06-22T04:07:43.216Z,2.50
2018-06-22T04:11:46.560Z,3.10
2018-06-22T04:15:49.928Z,2.90
2018-06-22T04:19:53.328Z,2.70
2018-06-22T04:23:56.853Z,3.17
2018-06-22T04:28:00.175Z,3.33
2018-06-22T04:32:03.493Z,3.00
2018-06-22T04:36:06.852Z,2.87
2018-06-22T04:40:10.413Z,3.07
2018-06-22T04:44:13.805Z,3.03
2018-06-22T04:48:17.104Z,2.30
2018-06-22T04:52:20.648Z,2.67
2018-06-22T04:56:23.987Z,2.40
2018-06-22T05:00:27.983Z,3.27
2018-06-22T05:04:31.332Z,2.93
2018-06-22T05:08:34.731Z,2.73
2018-06-22T05:12:38.048Z,2.53
2018-06-22T05:16:41.385Z,2.80
2018-06-22T05:20:44.759Z,2.10
2018-06-22T05:24:49.155Z,2.30
2018-06-22T05:28:52.532Z,2.40
2018-06-22T05:32:55.868Z,2.00
2018-06-22T05:36:59.179Z,1.77
2018-06-22T05:41:02.533Z,1.93
2018-06-22T05:45:05.854Z,1.87
2018-06-22T05:49:09.195Z,1.73
2018-06-22T05:53:12.524Z,1.73
2018-06-22T05:57:15.871Z,1.67
2018-06-22T06:01:19.310Z,1.40
2018-06-22T06:05:22.635Z,1.30
2018-06-22T06:09:26.035Z,0.87
2018-06-22T06:13:29.382Z,1.20
2018-06-22T06:17:32.724Z,0.90
2018-06-22T06:21:36.125Z,1.27
2018-06-22T06:25:39.447Z,0.80
2018-06-22T06:29:42.824Z,1.20
2018-06-22T06:33:46.181Z,1.33
2018-06-22T06:37:49.238Z,1.17
2018-06-22T06:41:52.569Z,1.33
2018-06-22T06:45:55.913Z,1.30
2018-06-22T06:49:59.223Z,1.10
2018-06-22T06:54:02.568Z,1.33
2018-06-22T06:58:12.231Z,1.40
2018-06-22T07:02:15.566Z,1.33
2018-06-22T07:06:18.871Z,1.50
2018-06-22T07:10:22.194Z,1.83
2018-06-22T07:14:25.665Z,1.40
2018-06-22T07:18:28.957Z,1.57
2018-06-22T07:22:32.315Z,1.43
2018-06-22T07:26:36.370Z,1.83
2018-06-22T07:30:39.743Z,1.50
2018-06-22T07:34:43.082Z,1.60
2018-06-22T07:38:46.460Z,1.60
2018-06-22T07:42:49.848Z,1.70
2018-06-22T07:46:53.244Z,1.60
2018-06-22T07:50:56.620Z,1.57
2018-06-22T07:54:59.998Z,1.90
2018-06-22T07:59:03.383Z,1.30
2018-06-22T08:03:06.751Z,1.30
2018-06-22T08:07:10.100Z,2.00
2018-06-22T08:11:13.475Z,1.63
2018-06-22T08:15:16.823Z,1.33
2018-06-22T08:19:20.240Z,1.43
2018-06-22T08:23:23.664Z,2.10
2018-06-22T08:27:27.031Z,1.60
2018-06-22T08:31:30.417Z,2.00
2018-06-22T08:35:33.755Z,1.60
2018-06-22T08:39:37.195Z,2.20
2018-06-22T08:43:40.574Z,2.27
2018-06-22T08:47:44.078Z,2.37
2018-06-22T08:51:47.451Z,1.90
2018-06-22T08:55:50.775Z,1.93
2018-06-22T08:59:54.140Z,2.00
2018-06-22T09:03:57.522Z,1.93
2018-06-22T09:08:00.976Z,1.90
2018-06-22T09:12:04.375Z,1.77
2018-06-22T09:16:07.719Z,1.80
2018-06-22T09:20:11.127Z,2.27
2018-06-22T09:24:14.482Z,2.10
2018-06-22T09:28:17.845Z,1.67
2018-06-22T09:32:21.205Z,1.70
2018-06-22T09:36:24.540Z,1.73
2018-06-22T09:40:27.895Z,1.90
2018-06-22T09:44:35.040Z,1.60
2018-06-22T09:48:38.123Z,1.27
2018-06-22T09:52:41.552Z,2.20
2018-06-22T09:56:44.884Z,1.73
2018-06-22T10:00:52.218Z,2.33
2018-06-22T10:04:55.628Z,2.10
2018-06-22T10:08:58.999Z,2.40
2018-06-22T10:13:02.395Z,2.17
2018-06-22T10:17:05.762Z,2.00
2018-06-22T10:21:09.219Z,1.30
2018-06-22T10:25:12.617Z,1.43
2018-06-22T10:29:15.999Z,1.50
2018-06-22T10:33:19.396Z,1.73
2018-06-22T10:37:22.755Z,1.90
2018-06-22T10:41:26.207Z,2.13
2018-06-22T10:45:29.675Z,2.17
2018-06-22T10:49:33.132Z,2.13
2018-06-22T10:53:36.559Z,2.30
2018-06-22T10:57:40.079Z,2.07
2018-06-22T11:01:43.518Z,2.20
2018-06-22T11:05:46.898Z,2.27
2018-06-22T11:09:50.254Z,2.23
2018-06-22T11:13:53.664Z,1.87
2018-06-22T11:17:57.101Z,1.53
2018-06-22T11:22:00.487Z,1.83
2018-06-22T11:26:03.866Z,1.97
2018-06-22T11:30:06.965Z,1.90
2018-06-22T11:34:10.402Z,2.03
2018-06-22T11:38:13.816Z,1.97
2018-06-22T11:42:17.715Z,1.67
2018-06-22T11:46:21.115Z,1.80
2018-06-22T11:50:24.492Z,2.00
2018-06-22T11:54:27.913Z,1.57
2018-06-22T11:58:31.267Z,1.90
2018-06-22T12:02:34.651Z,1.80
2018-06-22T12:06:38.088Z,2.33
2018-06-22T12:10:41.483Z,2.07
2018-06-22T12:14:44.857Z,2.40
2018-06-22T12:18:48.845Z,1.93
2018-06-22T12:22:51.930Z,2.50
2018-06-22T12:26:55.358Z,2.13
2018-06-22T12:30:58.724Z,2.13
2018-06-22T12:35:08.576Z,2.13
2018-06-22T12:39:13.818Z,2.13
2018-06-22T12:43:17.349Z,2.00
2018-06-22T12:47:20.752Z,2.37
2018-06-22T12:51:25.330Z,2.13
2018-06-22T12:55:28.712Z,2.83
2018-06-22T12:59:32.085Z,2.30
2018-06-22T13:03:35.463Z,2.20
2018-06-22T13:07:38.936Z,2.47
2018-06-22T13:11:42.296Z,2.47
2018-06-22T13:15:45.675Z,2.30
2018-06-22T13:19:49.257Z,2.33
2018-06-22T13:23:52.607Z,2.00
2018-06-22T13:27:56.113Z,2.10
2018-06-22T13:31:59.787Z,2.10
2018-06-22T13:36:03.289Z,1.80
2018-06-22T13:40:06.825Z,1.80
2018-06-22T13:44:11.094Z,2.00
2018-06-22T13:48:14.498Z,2.00
2018-06-22T13:52:17.911Z,2.20
2018-06-22T13:56:21.283Z,2.13
2018-06-22T14:00:25.020Z,2.13
2018-06-22T14:04:33.628Z,2.10
2018-06-22T14:08:37.039Z,2.50
2018-06-22T14:12:40.504Z,2.30
2018-06-22T14:16:45.427Z,2.57
2018-06-22T14:20:48.779Z,2.40
2018-06-22T14:24:52.263Z,2.40
2018-06-22T14:28:55.707Z,2.30
2018-06-22T14:32:59.095Z,2.50
2018-06-22T14:37:02.496Z,2.70
2018-06-22T14:41:06.274Z,2.50
2018-06-22T14:45:09.657Z,2.20
2018-06-22T14:49:13.052Z,2.30
2018-06-22T14:53:21.879Z,1.87
2018-06-22T14:57:30.718Z,2.10
2018-06-22T15:01:39.288Z,1.70
2018-06-22T15:05:48.099Z,1.80
2018-06-22T15:09:51.450Z,2.10
2018-06-22T15:13:54.790Z,2.30
2018-06-22T15:17:58.215Z,2.03
2018-06-22T15:22:01.536Z,1.70
2018-06-22T15:26:04.903Z,2.00
2018-06-22T15:30:08.238Z,2.20
2018-06-22T15:34:16.831Z,2.30
2018-06-22T15:38:25.448Z,1.90
2018-06-22T15:42:34.224Z,2.13
2018-06-22T15:46:42.927Z,1.97
2018-06-22T15:50:51.598Z,1.80
2018-06-22T15:54:59.166Z,2.50
2018-06-22T15:59:02.554Z,1.97
2018-06-22T16:03:11.411Z,2.03
2018-06-22T16:07:14.768Z,2.43
2018-06-22T16:11:18.199Z,2.30
2018-06-22T16:15:26.885Z,2.50
2018-06-22T16:19:35.568Z,2.40
2018-06-22T16:23:44.084Z,2.30
2018-06-22T16:27:51.810Z,2.60
2018-06-22T16:31:55.136Z,2.10
2018-06-22T16:35:58.465Z,2.40
2018-06-22T16:40:01.802Z,2.50
2018-06-22T16:44:05.202Z,2.70
2018-06-22T16:48:29.809Z,2.30
2018-06-22T16:52:33.334Z,2.67
2018-06-22T16:56:37.010Z,2.70
2018-06-22T17:00:40.349Z,2.53
2018-06-22T17:04:43.690Z,2.30
2018-06-22T17:08:52.417Z,2.60
2018-06-22T17:14:01.402Z,2.50
2018-06-22T17:18:10.037Z,2.63
2018-06-22T17:22:13.358Z,2.40
2018-06-22T17:26:16.707Z,2.50
2018-06-22T17:30:20.096Z,2.70
2018-06-22T17:34:23.582Z,2.47
2018-06-22T17:38:26.939Z,2.70
2018-06-22T17:42:30.283Z,2.50
2018-06-22T17:46:33.618Z,1.90
2018-06-22T17:50:37.046Z,2.27
2018-06-22T17:54:40.410Z,2.00
2018-06-22T17:58:47.990Z,2.50
2018-06-22T18:02:56.775Z,2.50
2018-06-22T18:07:05.523Z,2.33
2018-06-22T18:11:14.298Z,2.10
2018-06-22T18:15:18.666Z,2.10
2018-06-22T18:19:22.275Z,2.00
2018-06-22T18:23:25.612Z,2.10
2018-06-22T18:27:29.053Z,2.00
2018-06-22T18:31:33.178Z,2.43
2018-06-22T18:35:36.487Z,2.07
2018-06-22T18:39:39.876Z,2.67
2018-06-22T18:43:49.616Z,2.53
2018-06-22T18:47:58.757Z,2.43
2018-06-22T18:52:08.171Z,2.43
2018-06-22T18:56:17.694Z,2.13
2018-06-22T19:00:27.496Z,2.60
2018-06-22T19:04:32.543Z,2.37
2018-06-22T19:08:37.388Z,2.60
2018-06-22T19:12:41.371Z,2.87
2018-06-22T19:16:45.386Z,2.17
2018-06-22T19:20:49.363Z,2.70
2018-06-22T19:24:53.977Z,2.20
2018-06-22T19:28:58.175Z,2.17
2018-06-22T19:33:02.427Z,2.00
2018-06-22T19:37:07.014Z,2.57
2018-06-22T19:41:11.798Z,2.47
2018-06-22T19:45:21.007Z,3.10
2018-06-22T19:49:31.111Z,2.47
2018-06-22T19:53:40.533Z,2.80
2018-06-22T19:57:44.506Z,2.40
2018-06-22T20:01:49.657Z,2.70
2018-06-22T20:05:53.345Z,2.53
2018-06-22T20:09:58.302Z,2.33
2018-06-22T20:14:01.946Z,2.73
2018-06-22T20:18:06.889Z,2.60
2018-06-22T20:22:11.460Z,2.47
2018-06-22T20:26:15.455Z,2.60
2018-06-22T20:30:19.542Z,2.23
2018-06-22T20:34:28.616Z,3.03
2018-06-22T20:38:38.298Z,2.80
2018-06-22T20:42:47.080Z,2.23
2018-06-22T20:46:55.917Z,2.33
2018-06-22T20:50:59.334Z,3.20
2018-06-22T20:55:02.706Z,2.60
2018-06-22T20:59:06.019Z,3.17
2018-06-22T21:03:09.343Z,2.97
2018-06-22T21:07:12.422Z,2.83
2018-06-22T21:11:15.778Z,2.53
2018-06-22T21:15:19.102Z,2.93
2018-06-22T21:19:22.447Z,3.03
2018-06-22T21:23:25.770Z,2.90
2018-06-22T21:27:34.555Z,2.53
2018-06-22T21:31:43.218Z,2.77
2018-06-22T21:37:54.191Z,3.33
2018-06-22T21:41:57.622Z,3.00
2018-06-22T21:46:01.061Z,2.73
2018-06-22T21:50:04.547Z,3.10
2018-06-22T21:54:07.896Z,2.70
2018-06-22T21:58:11.327Z,3.20
2018-06-22T22:02:14.688Z,3.13
2018-06-22T22:06:18.078Z,2.93
2018-06-22T22:10:26.927Z,3.07
2018-06-22T22:14:30.246Z,3.00
2018-06-22T22:18:33.713Z,3.10
2018-06-22T22:22:37.039Z,2.90
2018-06-22T22:26:40.439Z,2.93
2018-06-22T22:30:43.767Z,3.43
2018-06-22T22:34:47.135Z,3.90
2018-06-22T22:38:50.478Z,3.80
2018-06-22T22:42:53.814Z,3.33
2018-06-22T22:46:57.149Z,3.50
2018-06-22T22:51:00.470Z,3.20
2018-06-22T22:55:03.884Z,3.63
2018-06-22T22:59:07.245Z,3.10
2018-06-22T23:03:10.577Z,3.70
2018-06-22T23:07:13.901Z,3.20
2018-06-22T23:11:17.230Z,3.30
2018-06-22T23:15:20.578Z,3.87
2018-06-22T23:19:23.926Z,4.07
2018-06-22T23:23:42.568Z,4.03
2018-06-22T23:27:45.918Z,4.00
2018-06-22T23:31:49.343Z,4.20
2018-06-22T23:35:52.670Z,3.53
2018-06-22T23:39:55.992Z,3.17
2018-06-22T23:43:59.436Z,4.00
2018-06-22T23:48:02.514Z,3.60
2018-06-22T23:52:05.871Z,3.40
2018-06-22T23:56:09.206Z,4.77
